Time;durP1;ratioP1;P1;durP2;ratioP2;P2;SDS_P1;SDS_P2;PMS_P1;PMS_P2;Temp;Humidity;BMP_temperature;BMP_pressure;BME280_temperature;BME280_humidity;BME280_pressure;Samples;Min_cycle;Max_cycle;Signal;HPM_P1;HPM_P2
2023/04/11 00:01:28;;;;;;;7.75;2.88;;;9.80;99.90;;;;;;4989300;28;20558;-66
2023/04/11 00:03:55;;;;;;;5.82;1.58;;;9.60;99.90;;;;;;4971000;28;20042;-65
2023/04/11 00:06:22;;;;;;;5.20;0.95;;;9.40;99.90;;;;;;4990201;28;20049;-65
2023/04/11 00:08:48;;;;;;;3.65;0.95;;;9.20;99.90;;;;;;4989297;28;20064;-66
2023/04/11 00:11:14;;;;;;;3.95;1.00;;;9.00;99.90;;;;;;4989234;28;20617;-71
2023/04/11 00:13:41;;;;;;;1.48;0.98;;;8.90;99.90;;;;;;4990450;28;20046;-66
2023/04/11 00:16:08;;;;;;;3.47;1.15;;;8.80;99.90;;;;;;4987495;28;20054;-81
2023/04/11 00:18:36;;;;;;;3.03;0.70;;;8.80;99.90;;;;;;4990415;28;20046;-66
2023/04/11 00:21:07;;;;;;;3.05;0.90;;;8.60;99.90;;;;;;4988179;28;20496;-77
2023/04/11 00:23:32;;;;;;;3.85;0.60;;;8.50;99.90;;;;;;4990154;28;20068;-66
2023/04/11 00:25:58;;;;;;;6.05;1.00;;;8.40;99.90;;;;;;4989011;28;20050;-65
2023/04/11 00:28:24;;;;;;;1.60;0.45;;;8.30;99.90;;;;;;4989953;28;20050;-66
2023/04/11 00:30:50;;;;;;;5.70;1.48;;;8.20;99.90;;;;;;4991009;28;20051;-80
2023/04/11 00:33:15;;;;;;;9.95;1.20;;;8.20;99.90;;;;;;4990780;28;20046;-66
2023/04/11 00:35:41;;;;;;;9.27;1.20;;;8.10;99.90;;;;;;4972451;28;20124;-66
2023/04/11 00:38:07;;;;;;;4.32;1.10;;;8.20;99.90;;;;;;4987920;28;20392;-66
2023/04/11 00:40:33;;;;;;;3.25;0.80;;;8.10;99.90;;;;;;4990194;28;20046;-80
2023/04/11 00:42:59;;;;;;;4.90;1.23;;;8.10;99.90;;;;;;4971160;28;20208;-80
2023/04/11 00:45:25;;;;;;;5.78;1.25;;;8.00;99.90;;;;;;4989234;28;20133;-67
2023/04/11 00:47:52;;;;;;;5.10;1.25;;;8.00;99.90;;;;;;4971627;28;20117;-67
2023/04/11 00:50:20;;;;;;;8.40;1.30;;;8.00;99.90;;;;;;4989330;28;20065;-67
2023/04/11 00:52:49;;;;;;;6.63;1.42;;;8.00;99.90;;;;;;4991891;28;20042;-78
2023/04/11 00:55:16;;;;;;;9.50;1.48;;;8.00;99.90;;;;;;4989386;28;20388;-82
2023/04/11 00:57:42;;;;;;;6.80;1.23;;;7.90;99.90;;;;;;4991587;28;20086;-67
2023/04/11 01:00:10;;;;;;;0.80;0.80;;;7.90;99.90;;;;;;4989542;28;20046;-67
2023/04/11 01:02:37;;;;;;;5.20;0.77;;;7.80;99.90;;;;;;5009285;28;20503;-67
2023/04/11 01:05:06;;;;;;;7.70;1.23;;;7.80;99.90;;;;;;5007915;28;20715;-87
2023/04/11 01:07:34;;;;;;;3.77;1.10;;;7.70;99.90;;;;;;5008438;28;20042;-67
2023/04/11 01:10:01;;;;;;;6.07;1.27;;;7.60;99.90;;;;;;5008819;28;20239;-66
2023/04/11 01:12:28;;;;;;;8.65;1.17;;;7.50;99.90;;;;;;4988547;28;20416;-78
2023/04/11 01:14:53;;;;;;;8.65;1.08;;;7.50;99.90;;;;;;5008528;28;20586;-66
2023/04/11 01:17:20;;;;;;;4.60;1.20;;;7.40;99.90;;;;;;4989256;28;20050;-77
2023/04/11 01:19:46;;;;;;;4.68;1.35;;;7.30;99.90;;;;;;4991388;28;20419;-66
2023/04/11 01:22:16;;;;;;;8.52;1.00;;;7.30;99.90;;;;;;5007566;28;20046;-66
2023/04/11 01:24:43;;;;;;;3.75;1.15;;;7.30;99.90;;;;;;5006970;28;20484;-78
2023/04/11 01:27:09;;;;;;;8.75;1.27;;;7.20;99.90;;;;;;5008544;28;20038;-67
2023/04/11 01:29:35;;;;;;;8.70;1.70;;;7.20;99.90;;;;;;4989366;28;20514;-67
2023/04/11 01:32:01;;;;;;;7.57;1.80;;;7.20;99.90;;;;;;5008664;28;20488;-86
2023/04/11 01:34:28;;;;;;;4.80;1.08;;;7.10;99.90;;;;;;5006638;28;20038;-84
2023/04/11 01:36:54;;;;;;;7.93;1.60;;;7.10;99.90;;;;;;5008531;28;20058;-66
2023/04/11 01:39:20;;;;;;;7.88;2.30;;;7.00;99.90;;;;;;5006527;28;20045;-66
2023/04/11 01:41:46;;;;;;;7.97;1.52;;;6.90;99.90;;;;;;4990546;28;20052;-66
2023/04/11 01:44:12;;;;;;;9.48;1.95;;;7.00;99.90;;;;;;5007688;28;20121;-67
2023/04/11 01:46:38;;;;;;;12.38;1.67;;;7.00;99.90;;;;;;5005329;28;20056;-66
2023/04/11 01:49:05;;;;;;;9.18;2.00;;;7.00;99.90;;;;;;5008862;28;20049;-66
2023/04/11 01:51:31;;;;;;;8.73;2.10;;;6.90;99.90;;;;;;5005978;28;20267;-84
2023/04/11 01:53:57;;;;;;;15.57;2.03;;;6.90;99.90;;;;;;5008504;28;20042;-66
2023/04/11 01:56:22;;;;;;;7.65;1.38;;;6.90;99.90;;;;;;4988303;28;20057;-66
2023/04/11 01:58:48;;;;;;;10.88;1.83;;;7.00;99.90;;;;;;5008247;28;20100;-67
2023/04/11 02:01:17;;;;;;;10.88;1.90;;;6.90;99.90;;;;;;5004740;28;20053;-66
2023/04/11 02:03:43;;;;;;;7.65;1.40;;;7.00;99.90;;;;;;5007440;28;20081;-66
2023/04/11 02:06:09;;;;;;;12.75;2.15;;;7.00;99.90;;;;;;5011224;28;20120;-66
2023/04/11 02:08:35;;;;;;;8.77;1.27;;;7.00;99.90;;;;;;5013436;28;20077;-66
2023/04/11 02:11:00;;;;;;;11.80;1.73;;;7.10;99.90;;;;;;5014322;28;20068;-67
2023/04/11 02:13:26;;;;;;;9.70;1.55;;;7.10;99.90;;;;;;4992075;28;20041;-68
2023/04/11 02:15:52;;;;;;;11.57;2.70;;;7.20;99.90;;;;;;5008073;28;20042;-66
2023/04/11 02:18:18;;;;;;;13.13;1.85;;;7.20;99.90;;;;;;5006968;28;20135;-67
2023/04/11 02:20:43;;;;;;;12.48;1.77;;;7.10;99.90;;;;;;5007951;28;20480;-66
2023/04/11 02:23:09;;;;;;;14.50;1.70;;;7.20;99.90;;;;;;4989844;28;20507;-66
2023/04/11 02:25:37;;;;;;;9.35;1.45;;;7.20;99.90;;;;;;5006780;28;20405;-67
2023/04/11 02:28:03;;;;;;;7.55;1.08;;;7.20;99.90;;;;;;5008176;28;20045;-66
2023/04/11 02:30:29;;;;;;;10.02;1.63;;;7.20;99.90;;;;;;5005677;28;20044;-66
2023/04/11 02:32:55;;;;;;;9.68;1.17;;;7.30;99.90;;;;;;5008119;28;20116;-66
2023/04/11 02:35:21;;;;;;;7.22;1.45;;;7.30;99.90;;;;;;5006148;28;20050;-66
2023/04/11 02:37:46;;;;;;;8.00;1.77;;;7.30;99.90;;;;;;4990042;28;20613;-66
2023/04/11 02:40:12;;;;;;;10.05;1.80;;;7.30;99.90;;;;;;5009982;28;20103;-66
2023/04/11 02:42:41;;;;;;;11.15;1.65;;;7.30;99.90;;;;;;4993203;28;20488;-66
2023/04/11 02:45:08;;;;;;;7.30;0.98;;;7.30;99.90;;;;;;5011651;28;20038;-66
2023/04/11 02:47:33;;;;;;;4.63;0.52;;;7.30;99.90;;;;;;5010072;28;20088;-66
2023/04/11 02:49:59;;;;;;;8.00;1.33;;;7.30;99.90;;;;;;4993799;28;20077;-67
2023/04/11 02:52:25;;;;;;;5.20;0.95;;;7.30;99.90;;;;;;5008841;28;20491;-66
2023/04/11 02:54:51;;;;;;;5.22;0.82;;;7.40;99.90;;;;;;5011485;28;20042;-73
2023/04/11 02:57:16;;;;;;;5.40;0.90;;;7.30;99.90;;;;;;5010144;28;20563;-66
2023/04/11 02:59:42;;;;;;;4.85;0.93;;;7.40;99.90;;;;;;4993511;28;20050;-66
2023/04/11 03:02:08;;;;;;;8.90;1.05;;;7.40;99.90;;;;;;5010628;28;20089;-66
2023/04/11 03:04:34;;;;;;;2.72;0.70;;;7.50;99.90;;;;;;5010011;28;20034;-87
2023/04/11 03:06:59;;;;;;;3.67;0.90;;;7.50;99.90;;;;;;4993387;28;20104;-66
2023/04/11 03:09:25;;;;;;;2.85;0.70;;;7.50;99.90;;;;;;5009310;28;20038;-66
2023/04/11 03:11:51;;;;;;;0.57;0.47;;;7.50;99.90;;;;;;5011376;28;20464;-66
2023/04/11 03:14:17;;;;;;;2.03;0.68;;;7.50;99.90;;;;;;4991645;28;20104;-66
2023/04/11 03:16:42;;;;;;;4.25;0.80;;;7.50;99.90;;;;;;4993057;28;20384;-66
2023/04/11 03:19:08;;;;;;;1.50;0.45;;;7.50;99.90;;;;;;5009750;28;20046;-66
2023/04/11 03:21:34;;;;;;;1.80;0.65;;;7.50;99.90;;;;;;5009894;28;20052;-66
2023/04/11 03:24:00;;;;;;;2.67;0.50;;;7.60;99.90;;;;;;4992928;28;20068;-66
2023/04/11 03:26:25;;;;;;;2.75;0.57;;;7.60;99.90;;;;;;4991351;28;20562;-66
2023/04/11 03:28:55;;;;;;;4.90;0.95;;;7.60;99.90;;;;;;5010845;28;20516;-66
2023/04/11 03:31:21;;;;;;;3.08;0.77;;;7.50;99.90;;;;;;5008976;28;20038;-66
2023/04/11 03:33:46;;;;;;;7.63;1.35;;;7.60;99.90;;;;;;4992508;28;20058;-66
2023/04/11 03:36:12;;;;;;;8.00;1.15;;;7.60;99.90;;;;;;5009337;28;20073;-66
2023/04/11 03:38:38;;;;;;;2.40;0.80;;;7.60;99.90;;;;;;5010295;28;20049;-66
2023/04/11 03:41:04;;;;;;;1.98;0.30;;;7.50;99.90;;;;;;4976130;28;20042;-65
2023/04/11 03:43:30;;;;;;;3.47;0.80;;;7.60;99.90;;;;;;5009055;28;20089;-66
2023/04/11 03:45:56;;;;;;;3.03;0.80;;;7.50;99.90;;;;;;5010713;28;20090;-66
2023/04/11 03:48:25;;;;;;;3.28;0.60;;;7.50;99.90;;;;;;5009078;28;20038;-65
2023/04/11 03:50:51;;;;;;;2.75;0.40;;;7.50;99.90;;;;;;5008707;28;20072;-85
2023/04/11 03:53:17;;;;;;;5.78;0.73;;;7.60;99.90;;;;;;5008902;28;20046;-65
2023/04/11 03:55:43;;;;;;;3.35;0.80;;;7.50;99.90;;;;;;5009938;28;20472;-66
2023/04/11 03:58:10;;;;;;;9.07;1.05;;;7.50;99.90;;;;;;5009771;28;20046;-87
2023/04/11 04:00:36;;;;;;;2.88;0.70;;;7.60;99.90;;;;;;5009353;28;20140;-66
2023/04/11 04:03:02;;;;;;;2.15;0.70;;;7.50;99.90;;;;;;5010599;28;20038;-65
2023/04/11 04:05:28;;;;;;;3.30;0.73;;;7.60;99.90;;;;;;5008361;28;20041;-67
2023/04/11 04:07:53;;;;;;;7.50;1.85;;;7.60;99.90;;;;;;5009768;28;20049;-66
2023/04/11 04:10:19;;;;;;;2.88;0.82;;;7.60;99.90;;;;;;4990780;28;20058;-66
2023/04/11 04:12:45;;;;;;;2.90;0.93;;;7.60;99.90;;;;;;4991832;28;20050;-66
2023/04/11 04:15:13;;;;;;;7.57;0.98;;;7.60;99.90;;;;;;5008524;28;20404;-66
2023/04/11 04:17:40;;;;;;;4.57;0.95;;;7.60;99.90;;;;;;5009253;28;20484;-66
2023/04/11 04:20:09;;;;;;;3.42;0.93;;;7.60;99.90;;;;;;5009468;28;20081;-66
2023/04/11 04:22:38;;;;;;;5.15;1.00;;;7.60;99.90;;;;;;5008080;28;20038;-66
2023/04/11 04:25:04;;;;;;;4.15;0.85;;;7.60;99.90;;;;;;4992202;28;20049;-66
2023/04/11 04:27:31;;;;;;;3.25;0.80;;;7.60;99.90;;;;;;4989872;28;20439;-66
2023/04/11 04:29:57;;;;;;;5.43;1.27;;;7.60;99.90;;;;;;5009284;28;20045;-66
2023/04/11 04:32:23;;;;;;;8.65;1.10;;;7.60;99.90;;;;;;4990763;28;20038;-66
2023/04/11 04:34:54;;;;;;;3.03;0.82;;;7.60;99.90;;;;;;5009351;28;20046;-66
2023/04/11 04:37:22;;;;;;;4.18;1.13;;;7.60;99.90;;;;;;5008707;28;20084;-66
2023/04/11 04:39:55;;;;;;;6.55;1.45;;;7.60;99.90;;;;;;5008022;28;20519;-76
2023/04/11 04:42:25;;;;;;;6.30;1.35;;;7.60;99.90;;;;;;5009824;28;20049;-67
2023/04/11 04:44:52;;;;;;;6.80;1.60;;;7.60;99.90;;;;;;5007478;28;20553;-66
2023/04/11 04:47:18;;;;;;;8.52;1.48;;;7.60;99.90;;;;;;5009200;28;20048;-80
2023/04/11 04:49:45;;;;;;;10.13;1.35;;;7.60;99.90;;;;;;4989552;28;20488;-66
2023/04/11 04:52:14;;;;;;;3.95;1.20;;;7.50;99.90;;;;;;5009020;28;20053;-67
2023/04/11 04:54:40;;;;;;;8.93;1.63;;;7.50;99.90;;;;;;5008366;28;20625;-66
2023/04/11 04:57:07;;;;;;;7.38;1.27;;;7.60;99.90;;;;;;4990109;28;20099;-66
2023/04/11 04:59:33;;;;;;;6.97;1.58;;;7.50;99.90;;;;;;4991754;28;20113;-83
2023/04/11 05:01:59;;;;;;;8.75;1.60;;;7.60;99.90;;;;;;5006880;28;20136;-66
2023/04/11 05:04:24;;;;;;;10.45;1.60;;;7.50;99.90;;;;;;5008914;28;20084;-66
2023/04/11 05:06:50;;;;;;;12.23;1.65;;;7.60;99.90;;;;;;5006708;28;20050;-66
2023/04/11 05:09:16;;;;;;;9.60;1.88;;;7.60;99.90;;;;;;4990891;28;20054;-66
2023/04/11 05:11:42;;;;;;;3.47;1.30;;;7.60;99.90;;;;;;5007738;28;20146;-66
2023/04/11 05:14:08;;;;;;;7.90;1.40;;;7.60;99.90;;;;;;5007496;28;20519;-66
2023/04/11 05:16:36;;;;;;;6.38;1.67;;;7.70;99.90;;;;;;5007769;28;20045;-66
2023/04/11 05:19:02;;;;;;;6.25;1.63;;;7.70;99.90;;;;;;4988754;28;20065;-66
2023/04/11 05:21:28;;;;;;;14.18;1.92;;;7.80;99.90;;;;;;5008817;28;20084;-66
2023/04/11 05:23:54;;;;;;;7.93;1.90;;;7.70;99.90;;;;;;5006095;28;20052;-66
2023/04/11 05:26:19;;;;;;;11.18;1.90;;;7.80;99.90;;;;;;5008816;28;20049;-66
2023/04/11 05:28:45;;;;;;;8.13;1.85;;;7.80;99.90;;;;;;5006614;28;20128;-66
2023/04/11 05:31:11;;;;;;;9.20;1.35;;;7.80;99.90;;;;;;4974375;28;20057;-66
2023/04/11 05:33:37;;;;;;;8.18;1.40;;;7.80;99.90;;;;;;4990048;28;20045;-66
2023/04/11 05:36:04;;;;;;;5.15;1.75;;;7.80;99.90;;;;;;4972896;28;20433;-66
2023/04/11 05:38:32;;;;;;;8.52;1.55;;;7.80;99.90;;;;;;5008636;28;20384;-66
2023/04/11 05:40:58;;;;;;;7.90;2.00;;;7.90;99.90;;;;;;5006499;28;20046;-66
2023/04/11 05:43:24;;;;;;;14.00;1.98;;;7.90;99.90;;;;;;4990550;28;20088;-66
2023/04/11 05:45:50;;;;;;;9.30;1.70;;;7.90;99.90;;;;;;5006315;28;20081;-66
2023/04/11 05:48:21;;;;;;;3.60;1.02;;;7.90;99.90;;;;;;5007994;28;20403;-66
2023/04/11 05:50:48;;;;;;;1.48;0.57;;;7.90;99.90;;;;;;5006470;28;20054;-66
2023/04/11 05:53:14;;;;;;;3.83;0.82;;;7.80;99.90;;;;;;5007406;28;20053;-66
2023/04/11 05:55:39;;;;;;;5.30;1.35;;;7.70;99.90;;;;;;5008408;28;20068;-87
2023/04/11 05:58:05;;;;;;;2.92;0.70;;;7.70;99.90;;;;;;5006330;28;20551;-66
2023/04/11 06:00:31;;;;;;;2.13;0.50;;;7.60;99.90;;;;;;4990435;28;20072;-66
2023/04/11 06:02:58;;;;;;;1.83;0.60;;;7.60;99.90;;;;;;5005627;28;20041;-66
2023/04/11 06:05:25;;;;;;;2.40;0.98;;;7.60;99.90;;;;;;5007938;28;20042;-84
2023/04/11 06:07:52;;;;;;;1.23;0.63;;;7.60;99.90;;;;;;5007121;28;20038;-66
2023/04/11 06:10:18;;;;;;;2.00;0.45;;;7.60;99.90;;;;;;4989292;28;20561;-65
2023/04/11 06:12:44;;;;;;;2.88;0.38;;;7.60;99.90;;;;;;5007636;28;20049;-65
2023/04/11 06:15:10;;;;;;;1.08;0.32;;;7.50;99.90;;;;;;5009844;28;20041;-65
2023/04/11 06:17:37;;;;;;;3.50;0.57;;;7.40;99.90;;;;;;5012241;28;20041;-65
2023/04/11 06:20:04;;;;;;;3.05;0.65;;;7.40;99.90;;;;;;4992317;28;20124;-65
2023/04/11 06:22:30;;;;;;;4.00;0.73;;;7.40;99.90;;;;;;4994448;28;20042;-65
2023/04/11 06:24:56;;;;;;;3.70;0.95;;;7.40;99.90;;;;;;4992556;28;20046;-65
2023/04/11 06:27:22;;;;;;;6.35;1.25;;;7.50;99.90;;;;;;5012061;28;20049;-65
2023/04/11 06:29:47;;;;;;;21.23;3.58;;;7.60;99.90;;;;;;4993345;28;20515;-65
2023/04/11 06:32:13;;;;;;;4.30;1.58;;;7.60;99.90;;;;;;5009354;28;20503;-81
2023/04/11 06:34:39;;;;;;;1.90;0.40;;;7.30;99.90;;;;;;5014097;28;20113;-65
2023/04/11 06:37:06;;;;;;;0.95;0.20;;;7.00;99.90;;;;;;4996115;28;20041;-66
2023/04/11 06:39:32;;;;;;;5.15;1.08;;;6.80;99.90;;;;;;5014510;28;20057;-71
2023/04/11 06:41:58;;;;;;;6.32;0.88;;;6.70;99.90;;;;;;4994792;28;20050;-65
2023/04/11 06:44:23;;;;;;;3.10;0.90;;;6.70;99.90;;;;;;5014499;28;20112;-64
2023/04/11 06:46:49;;;;;;;5.72;1.00;;;6.60;99.90;;;;;;5009272;28;20050;-65
2023/04/11 06:49:16;;;;;;;5.50;0.85;;;6.60;99.90;;;;;;5010484;28;20081;-65
2023/04/11 06:51:42;;;;;;;7.20;0.95;;;6.60;99.90;;;;;;5010773;28;20525;-65
2023/04/11 06:54:09;;;;;;;6.45;1.00;;;6.60;99.90;;;;;;5008355;28;20125;-66
2023/04/11 06:56:35;;;;;;;6.45;1.13;;;6.60;99.90;;;;;;4992891;28;20428;-66
2023/04/11 06:59:01;;;;;;;8.23;1.50;;;6.70;99.90;;;;;;4991530;28;20041;-66
2023/04/11 07:01:34;;;;;;;6.13;1.33;;;6.70;99.90;;;;;;5010643;28;20083;-66
2023/04/11 07:04:01;;;;;;;8.43;2.35;;;6.80;99.90;;;;;;5008064;28;20045;-66
2023/04/11 07:06:27;;;;;;;11.38;1.60;;;6.80;99.90;;;;;;5009167;28;20412;-66
2023/04/11 07:08:53;;;;;;;9.00;1.48;;;6.80;99.90;;;;;;5010556;28;20038;-88
2023/04/11 07:11:18;;;;;;;12.05;1.77;;;6.90;99.90;;;;;;4991587;28;20464;-66
2023/04/11 07:13:44;;;;;;;8.23;2.13;;;7.00;99.90;;;;;;5011462;28;20042;-68
2023/04/11 07:16:10;;;;;;;9.10;2.85;;;7.00;99.90;;;;;;5009187;28;20849;-66
2023/04/11 07:18:36;;;;;;;8.60;2.35;;;7.10;99.90;;;;;;4989174;28;20133;-66
2023/04/11 07:21:01;;;;;;;12.27;2.45;;;7.10;99.90;;;;;;4991152;28;20054;-66
2023/04/11 07:23:27;;;;;;;18.73;2.17;;;7.20;99.90;;;;;;5011101;28;20041;-66
2023/04/11 07:25:53;;;;;;;14.63;2.20;;;7.40;99.90;;;;;;4991566;28;20045;-66
2023/04/11 07:28:20;;;;;;;12.93;2.08;;;7.50;99.90;;;;;;5009802;28;20112;-66
2023/04/11 07:30:46;;;;;;;6.43;1.52;;;7.60;99.90;;;;;;5010116;28;20447;-65
2023/04/11 07:33:12;;;;;;;15.82;2.22;;;7.70;99.90;;;;;;4990618;28;20087;-66
2023/04/11 07:35:37;;;;;;;14.32;2.40;;;7.60;99.90;;;;;;5009966;28;20504;-66
2023/04/11 07:38:03;;;;;;;9.68;1.65;;;7.60;99.90;;;;;;5007979;28;20052;-66
2023/04/11 07:40:30;;;;;;;13.13;2.42;;;7.50;99.90;;;;;;4992864;28;20048;-66
2023/04/11 07:42:56;;;;;;;18.13;2.75;;;7.60;99.90;;;;;;5009169;28;20034;-66
2023/04/11 07:45:21;;;;;;;15.40;3.00;;;7.60;99.90;;;;;;5009850;28;20399;-66
2023/04/11 07:47:47;;;;;;;19.10;3.45;;;7.60;99.90;;;;;;4975676;28;20136;-73
2023/04/11 07:50:13;;;;;;;13.90;2.92;;;7.70;99.90;;;;;;5007625;28;20034;-74
2023/04/11 07:52:39;;;;;;;20.13;3.15;;;7.80;99.90;;;;;;5009983;28;20058;-65
2023/04/11 07:55:05;;;;;;;21.42;3.92;;;7.80;99.90;;;;;;5007632;28;20046;-66
2023/04/11 07:57:30;;;;;;;17.40;3.20;;;7.90;99.90;;;;;;5009842;28;20460;-66
2023/04/11 08:00:00;;;;;;;20.55;3.10;;;7.90;99.90;;;;;;4990493;28;20133;-66
2023/04/11 08:02:25;;;;;;;27.55;4.03;;;8.00;99.90;;;;;;5010074;28;20396;-66
2023/04/11 08:04:51;;;;;;;10.07;2.58;;;8.10;99.90;;;;;;5009169;28;20046;-66
2023/04/11 08:07:17;;;;;;;20.17;3.30;;;8.20;99.90;;;;;;5008657;28;20048;-66
2023/04/11 08:09:42;;;;;;;14.85;3.20;;;8.20;99.90;;;;;;5009465;28;20128;-66
2023/04/11 08:12:09;;;;;;;16.90;3.78;;;8.50;99.90;;;;;;4990442;28;20050;-86
2023/04/11 08:14:35;;;;;;;15.52;3.38;;;8.70;99.90;;;;;;4991818;28;20042;-66
2023/04/11 08:17:01;;;;;;;17.20;2.88;;;9.10;99.90;;;;;;5008283;28;20310;-66
2023/04/11 08:19:27;;;;;;;21.48;3.45;;;9.40;99.90;;;;;;5009074;28;20120;-66
2023/04/11 08:21:53;;;;;;;8.50;2.03;;;9.60;99.90;;;;;;5008150;28;20100;-66
2023/04/11 08:24:19;;;;;;;14.93;3.17;;;9.80;99.90;;;;;;5007942;28;20124;-66
2023/04/11 08:26:45;;;;;;;20.25;3.97;;;9.90;96.30;;;;;;5008523;28;20057;-66
2023/04/11 08:29:11;;;;;;;10.02;2.17;;;10.00;98.80;;;;;;5006611;28;20414;-66
2023/04/11 08:31:46;;;;;;;20.75;3.75;;;9.90;90.00;;;;;;4990679;28;20521;-66
2023/04/11 08:34:11;;;;;;;15.80;3.35;;;9.80;98.30;;;;;;5006924;28;20045;-66
2023/04/11 08:36:38;;;;;;;12.05;1.75;;;9.60;95.20;;;;;;4990697;28;20470;-66
2023/04/11 08:39:03;;;;;;;3.75;1.13;;;9.60;94.00;;;;;;5007460;28;20199;-85
2023/04/11 08:41:29;;;;;;;14.98;3.05;;;9.60;89.10;;;;;;5008507;28;20144;-66
2023/04/11 08:43:56;;;;;;;8.00;1.90;;;9.50;90.80;;;;;;5008552;28;20080;-66
2023/04/11 08:46:22;;;;;;;11.32;1.88;;;9.40;86.00;;;;;;5017356;28;20045;-82
2023/04/11 08:48:48;;;;;;;12.25;1.88;;;9.40;91.30;;;;;;4990713;28;20060;-66
2023/04/11 08:51:25;;;;;;;1.85;0.82;;;9.30;94.50;;;;;;5013355;28;20072;-65
2023/04/11 08:53:53;;;;;;;2.17;0.30;;;8.70;90.50;;;;;;5008307;28;20050;-78
2023/04/11 08:56:19;;;;;;;5.32;1.20;;;8.40;94.20;;;;;;5011350;28;20038;-67
2023/04/11 08:58:45;;;;;;;4.82;1.40;;;8.20;95.90;;;;;;5009511;28;20045;-66
2023/04/11 09:01:33;;;;;;;8.55;1.38;;;8.30;97.90;;;;;;5007512;28;20086;-67
2023/04/11 09:04:00;;;;;;;10.18;1.45;;;8.70;99.90;;;;;;5005993;28;20096;-66
2023/04/11 09:06:31;;;;;;;6.20;1.73;;;9.30;99.90;;;;;;5007362;28;20045;-67
2023/04/11 09:09:03;;;;;;;;;;;9.50;91.40;;;;;;4989116;28;20034;-66
2023/04/11 09:11:30;;;;;;;8.38;1.95;;;9.30;94.00;;;;;;5006782;28;19925;-67
2023/04/11 09:14:10;;;;;;;8.82;1.67;;;9.10;89.60;;;;;;5005084;28;20081;-66
2023/04/11 09:16:36;;;;;;;15.18;2.20;;;9.00;94.80;;;;;;4985911;28;20064;-66
2023/04/11 09:19:02;;;;;;;12.75;2.40;;;9.00;99.90;;;;;;5005413;28;20046;-67
2023/04/11 09:21:28;;;;;;;13.00;2.90;;;9.00;97.90;;;;;;5006070;28;20034;-66
2023/04/11 09:24:14;;;;;;;14.52;2.53;;;8.90;98.60;;;;;;4988533;28;20626;-67
2023/04/11 09:26:40;;;;;;;15.32;2.78;;;8.80;99.90;;;;;;4995196;28;20165;-66
2023/04/11 09:29:06;;;;;;;13.30;2.92;;;8.80;99.90;;;;;;5008561;28;20041;-66
2023/04/11 09:31:45;;;;;;;11.45;2.35;;;8.60;97.70;;;;;;5006827;28;20067;-66
2023/04/11 09:34:12;;;;;;;5.25;1.58;;;8.20;99.90;;;;;;4989097;28;20088;-65
2023/04/11 09:36:38;;;;;;;7.55;1.80;;;8.10;99.90;;;;;;4986685;28;20054;-66
2023/04/11 09:39:17;;;;;;;16.45;2.10;;;8.00;99.90;;;;;;4988876;28;20038;-66
2023/04/11 09:41:43;;;;;;;12.98;2.60;;;8.10;99.90;;;;;;5007206;28;20057;-66
2023/04/11 09:44:09;;;;;;;12.95;2.85;;;8.60;99.90;;;;;;4992666;28;20079;-66
2023/04/11 09:46:36;;;;;;;12.05;2.08;;;8.90;99.90;;;;;;5006499;28;20049;-66
2023/04/11 09:49:02;;;;;;;2.88;0.77;;;8.90;99.90;;;;;;5006157;28;20060;-67
2023/04/11 09:51:28;;;;;;;5.03;1.00;;;8.70;97.10;;;;;;5005247;28;20092;-66
2023/04/11 09:53:55;;;;;;;8.05;1.40;;;8.50;99.90;;;;;;5007925;28;20526;-66
2023/04/11 09:56:22;;;;;;;3.00;0.70;;;8.30;98.60;;;;;;5000511;28;20049;-82
2023/04/11 09:58:49;;;;;;;7.32;0.98;;;8.20;96.90;;;;;;4989385;28;20100;-74
2023/04/11 10:01:18;;;;;;;4.90;0.80;;;8.10;99.90;;;;;;5006093;28;20046;-81
2023/04/11 10:03:46;;;;;;;4.22;0.93;;;8.10;99.20;;;;;;5008042;28;20050;-66
2023/04/11 10:06:21;;;;;;;10.55;1.52;;;8.00;99.90;;;;;;5006972;28;20034;-66
2023/04/11 10:08:48;;;;;;;16.45;1.58;;;8.10;98.50;;;;;;5006556;28;20100;-66
2023/04/11 10:11:17;;;;;;;16.63;3.47;;;8.20;99.90;;;;;;5005372;28;20049;-66
2023/04/11 10:13:48;;;;;;;19.25;2.72;;;8.30;99.90;;;;;;5006047;28;20407;-66
2023/04/11 10:16:19;;;;;;;13.65;2.63;;;8.40;99.90;;;;;;5007203;28;20484;-66
2023/04/11 10:18:54;;;;;;;10.57;2.65;;;8.50;97.30;;;;;;5005025;28;20057;-66
2023/04/11 10:21:29;;;;;;;12.40;2.70;;;8.60;97.90;;;;;;5007574;28;20054;-66
2023/04/11 10:24:08;;;;;;;12.40;2.45;;;8.60;97.90;;;;;;5003818;28;20049;-66
2023/04/11 10:26:47;;;;;;;12.75;2.92;;;8.70;95.80;;;;;;5003483;28;20388;-66
2023/04/11 10:29:28;;;;;;;12.80;2.22;;;8.70;96.40;;;;;;5007960;28;20169;-66
2023/04/11 10:32:09;;;;;;;2.10;0.65;;;8.90;96.90;;;;;;5006601;28;20436;-66
2023/04/11 10:34:40;;;;;;;2.47;0.82;;;9.00;93.20;;;;;;5005987;28;20121;-66
2023/04/11 10:37:08;;;;;;;7.72;0.98;;;9.00;92.40;;;;;;5007197;28;20084;-67
2023/04/11 10:39:52;;;;;;;9.35;1.33;;;9.00;89.60;;;;;;5004893;28;20048;-66
2023/04/11 10:42:32;;;;;;;1.58;0.85;;;8.90;88.00;;;;;;4988191;28;20088;-67
2023/04/11 10:45:17;;;;;;;3.00;0.30;;;8.90;84.20;;;;;;5006477;28;20045;-66
2023/04/11 10:47:59;;;;;;;1.05;0.30;;;8.80;84.50;;;;;;4988700;28;20038;-66
2023/04/11 10:50:27;;;;;;;4.82;0.98;;;8.70;87.00;;;;;;5006752;28;20042;-85
2023/04/11 10:52:59;;;;;;;5.57;0.88;;;8.60;89.00;;;;;;4982969;28;20092;-66
2023/04/11 10:55:27;;;;;;;3.63;0.93;;;8.90;92.30;;;;;;5007388;28;20054;-66
2023/04/11 10:58:09;;;;;;;8.23;1.55;;;9.20;92.00;;;;;;5004821;28;20499;-66
2023/04/11 11:01:02;;;;;;;8.68;1.02;;;9.80;95.00;;;;;;5008376;28;20054;-66
2023/04/11 11:03:30;;;;;;;0.68;0.22;;;10.30;93.90;;;;;;4985375;28;20056;-66
2023/04/11 11:06:07;;;;;;;6.43;1.05;;;10.30;81.20;;;;;;5004734;28;20103;-65
2023/04/11 11:08:36;;;;;;;2.35;0.65;;;10.00;87.40;;;;;;5009665;28;20092;-66
2023/04/11 11:11:07;;;;;;;5.15;1.17;;;9.40;87.60;;;;;;4992828;28;20099;-66
2023/04/11 11:13:46;;;;;;;4.07;0.52;;;9.60;99.90;;;;;;5006934;28;20129;-66
2023/04/11 11:16:23;;;;;;;7.93;1.10;;;10.00;95.80;;;;;;5011603;28;20049;-66
2023/04/11 11:18:52;;;;;;;6.95;1.25;;;10.20;96.70;;;;;;5010802;28;20046;-66
2023/04/11 11:21:20;;;;;;;3.22;0.60;;;10.40;92.70;;;;;;5010813;28;20041;-66
2023/04/11 11:24:02;;;;;;;1.45;0.28;;;10.70;90.50;;;;;;5008561;28;20476;-66
2023/04/11 11:26:55;;;;;;;7.22;1.27;;;10.70;84.20;;;;;;5010152;28;20034;-66
2023/04/11 11:29:37;;;;;;;3.28;0.50;;;10.60;76.00;;;;;;5007799;28;20093;-66
2023/04/11 11:32:03;;;;;;;3.10;0.50;;;10.50;83.70;;;;;;4991173;28;20049;-65
2023/04/11 11:34:32;;;;;;;2.95;0.60;;;10.50;77.00;;;;;;5010576;28;20104;-65
2023/04/11 11:37:00;;;;;;;4.93;0.68;;;10.50;79.20;;;;;;5008646;28;20735;-66
2023/04/11 11:39:29;;;;;;;3.72;0.88;;;10.50;87.00;;;;;;5009483;28;21120;-66
2023/04/11 11:41:55;;;;;;;5.95;1.17;;;10.40;80.50;;;;;;5009763;28;20096;-66
2023/04/11 11:44:22;;;;;;;5.15;1.10;;;10.50;90.60;;;;;;5007976;28;20046;-66
2023/04/11 11:47:08;;;;;;;10.70;1.80;;;10.30;84.90;;;;;;5008041;28;20053;-66
2023/04/11 11:49:47;;;;;;;15.95;3.05;;;9.60;90.10;;;;;;5002685;28;20071;-79
2023/04/11 11:52:33;;;;;;;10.45;2.53;;;9.30;96.60;;;;;;5009102;28;20100;-66
2023/04/11 11:54:59;;;;;;;3.45;1.08;;;9.00;98.60;;;;;;5009189;28;20045;-65
2023/04/11 11:57:26;;;;;;;1.67;0.90;;;8.70;96.50;;;;;;5007278;28;20052;-66
2023/04/11 11:59:55;;;;;;;7.70;1.63;;;8.40;95.70;;;;;;5009250;28;20038;-66
2023/04/11 12:02:23;;;;;;;4.32;0.90;;;8.10;99.90;;;;;;4989904;28;20054;-86
2023/04/11 12:04:48;;;;;;;1.90;0.73;;;8.10;99.90;;;;;;5008818;28;20037;-65
2023/04/11 12:07:21;;;;;;;10.30;1.50;;;8.00;99.90;;;;;;5007617;28;20361;-66
2023/04/11 12:09:48;;;;;;;9.20;2.25;;;8.10;99.90;;;;;;5006643;28;20301;-66
2023/04/11 12:12:17;;;;;;;12.77;1.98;;;8.20;99.90;;;;;;4989288;28;20050;-66
2023/04/11 12:14:53;;;;;;;17.33;3.28;;;8.30;99.90;;;;;;5006368;28;20050;-66
2023/04/11 12:17:19;;;;;;;10.95;2.47;;;8.30;99.90;;;;;;4989879;28;20054;-66
2023/04/11 12:19:44;;;;;;;10.88;1.98;;;8.30;99.90;;;;;;5006105;28;20046;-66
2023/04/11 12:22:10;;;;;;;2.33;0.57;;;8.30;99.90;;;;;;5008685;28;20076;-66
2023/04/11 12:24:36;;;;;;;3.92;1.23;;;8.60;99.90;;;;;;5008726;28;20116;-66
2023/04/11 12:27:02;;;;;;;5.13;0.73;;;8.90;99.90;;;;;;4991333;28;20054;-66
2023/04/11 12:29:28;;;;;;;10.93;1.80;;;9.20;99.90;;;;;;5009731;28;20104;-66
2023/04/11 12:31:53;;;;;;;9.20;1.23;;;9.30;99.90;;;;;;5007765;28;20472;-66
2023/04/11 12:34:19;;;;;;;7.22;1.60;;;9.10;95.30;;;;;;4991933;28;20056;-67
2023/04/11 12:36:45;;;;;;;6.10;0.98;;;9.30;97.60;;;;;;5008268;28;20041;-66
2023/04/11 12:39:10;;;;;;;8.13;1.92;;;9.20;95.10;;;;;;5009334;28;20109;-66
2023/04/11 12:41:36;;;;;;;5.40;1.00;;;9.20;99.10;;;;;;5008071;28;20072;-66
2023/04/11 12:44:02;;;;;;;1.02;0.30;;;9.00;94.00;;;;;;5008691;28;20042;-66
2023/04/11 12:46:28;;;;;;;3.33;0.90;;;9.10;93.10;;;;;;5008669;28;20450;-66
2023/04/11 12:48:54;;;;;;;1.20;0.55;;;9.30;91.40;;;;;;4990185;28;20099;-66
2023/04/11 12:51:20;;;;;;;1.25;0.60;;;9.70;87.90;;;;;;5008843;28;20109;-66
2023/04/11 12:53:45;;;;;;;5.20;0.82;;;9.90;85.30;;;;;;5007323;28;20049;-65
2023/04/11 12:56:11;;;;;;;3.47;0.82;;;10.10;81.00;;;;;;4990950;28;20050;-66